sensor_id;sensor_type;location;lat;lon;timestamp;P1;durP1;ratioP1;P2;durP2;ratioP2
71606;SDS011;60641;53.556;9.914;2023-04-01T00:00:57;9.80;;;2.90;;
71606;SDS011;60641;53.556;9.914;2023-04-01T00:03:25;8.40;;;2.80;;
71606;SDS011;60641;53.556;9.914;2023-04-01T00:05:53;10.10;;;2.60;;
71606;SDS011;60641;53.556;9.914;2023-04-01T00:08:20;8.80;;;2.90;;
71606;SDS011;60641;53.556;9.914;2023-04-01T00:10:47;11.40;;;2.70;;
71606;SDS011;60641;53.556;9.914;2023-04-01T00:13:13;7.30;;;2.20;;
71606;SDS011;60641;53.556;9.914;2023-04-01T00:15:41;10.30;;;2.50;;
71606;SDS011;60641;53.556;9.914;2023-04-01T00:18:08;8.20;;;2.70;;
71606;SDS011;60641;53.556;9.914;2023-04-01T00:20:35;8.70;;;2.70;;
71606;SDS011;60641;53.556;9.914;2023-04-01T00:23:01;10.80;;;2.90;;
71606;SDS011;60641;53.556;9.914;2023-04-01T00:25:28;9.00;;;3.00;;
71606;SDS011;60641;53.556;9.914;2023-04-01T00:27:55;8.10;;;3.10;;
71606;SDS011;60641;53.556;9.914;2023-04-01T00:30:21;7.30;;;2.70;;
71606;SDS011;60641;53.556;9.914;2023-04-01T00:32:51;10.10;;;3.00;;
71606;SDS011;60641;53.556;9.914;2023-04-01T00:35:18;9.10;;;2.60;;
71606;SDS011;60641;53.556;9.914;2023-04-01T00:37:45;9.20;;;3.20;;
71606;SDS011;60641;53.556;9.914;2023-04-01T00:40:26;7.60;;;2.70;;
71606;SDS011;60641;53.556;9.914;2023-04-01T00:42:59;11.50;;;3.10;;
71606;SDS011;60641;53.556;9.914;2023-04-01T00:45:30;7.80;;;2.70;;
71606;SDS011;60641;53.556;9.914;2023-04-01T00:48:00;6.90;;;2.70;;
71606;SDS011;60641;53.556;9.914;2023-04-01T00:50:31;9.20;;;2.90;;
71606;SDS011;60641;53.556;9.914;2023-04-01T00:52:58;8.50;;;2.90;;
71606;SDS011;60641;53.556;9.914;2023-04-01T00:55:26;8.40;;;3.20;;
71606;SDS011;60641;53.556;9.914;2023-04-01T00:57:53;8.20;;;2.90;;
71606;SDS011;60641;53.556;9.914;2023-04-01T01:00:23;8.70;;;3.40;;
71606;SDS011;60641;53.556;9.914;2023-04-01T01:02:49;8.90;;;3.00;;
71606;SDS011;60641;53.556;9.914;2023-04-01T01:05:16;9.80;;;2.90;;
71606;SDS011;60641;53.556;9.914;2023-04-01T01:13:11;8.90;;;2.90;;
71606;SDS011;60641;53.556;9.914;2023-04-01T01:15:44;6.70;;;2.40;;
71606;SDS011;60641;53.556;9.914;2023-04-01T01:18:24;9.60;;;3.10;;
71606;SDS011;60641;53.556;9.914;2023-04-01T01:26:54;5.30;;;1.50;;
71606;SDS011;60641;53.556;9.914;2023-04-01T01:35:27;8.10;;;2.50;;
71606;SDS011;60641;53.556;9.914;2023-04-01T01:38:16;9.70;;;2.40;;
71606;SDS011;60641;53.556;9.914;2023-04-01T01:40:46;8.10;;;2.50;;
71606;SDS011;60641;53.556;9.914;2023-04-01T01:43:19;9.10;;;2.70;;
71606;SDS011;60641;53.556;9.914;2023-04-01T01:45:48;9.60;;;2.70;;
71606;SDS011;60641;53.556;9.914;2023-04-01T01:48:17;9.00;;;2.50;;
71606;SDS011;60641;53.556;9.914;2023-04-01T01:50:46;9.70;;;2.60;;
71606;SDS011;60641;53.556;9.914;2023-04-01T01:53:14;7.10;;;2.90;;
71606;SDS011;60641;53.556;9.914;2023-04-01T01:55:42;6.90;;;2.30;;
71606;SDS011;60641;53.556;9.914;2023-04-01T01:58:12;10.60;;;2.40;;
71606;SDS011;60641;53.556;9.914;2023-04-01T02:00:43;8.10;;;2.30;;
71606;SDS011;60641;53.556;9.914;2023-04-01T02:03:13;7.90;;;2.50;;
71606;SDS011;60641;53.556;9.914;2023-04-01T02:05:40;9.40;;;2.90;;
71606;SDS011;60641;53.556;9.914;2023-04-01T02:08:08;8.60;;;2.90;;
71606;SDS011;60641;53.556;9.914;2023-04-01T02:10:39;9.00;;;2.80;;
71606;SDS011;60641;53.556;9.914;2023-04-01T02:13:11;9.10;;;2.90;;
71606;SDS011;60641;53.556;9.914;2023-04-01T02:15:42;8.00;;;2.70;;
71606;SDS011;60641;53.556;9.914;2023-04-01T02:18:12;8.20;;;2.40;;
71606;SDS011;60641;53.556;9.914;2023-04-01T02:20:39;6.70;;;2.60;;
71606;SDS011;60641;53.556;9.914;2023-04-01T02:23:06;8.90;;;2.60;;
71606;SDS011;60641;53.556;9.914;2023-04-01T02:25:35;7.70;;;2.30;;
71606;SDS011;60641;53.556;9.914;2023-04-01T02:28:04;8.50;;;2.30;;
71606;SDS011;60641;53.556;9.914;2023-04-01T02:30:32;7.90;;;2.60;;
71606;SDS011;60641;53.556;9.914;2023-04-01T02:33:00;8.70;;;2.80;;
71606;SDS011;60641;53.556;9.914;2023-04-01T02:35:27;8.60;;;3.20;;
71606;SDS011;60641;53.556;9.914;2023-04-01T02:37:54;9.70;;;3.30;;
71606;SDS011;60641;53.556;9.914;2023-04-01T02:40:21;10.00;;;3.00;;
71606;SDS011;60641;53.556;9.914;2023-04-01T02:42:47;10.00;;;3.10;;
71606;SDS011;60641;53.556;9.914;2023-04-01T02:45:14;7.80;;;2.70;;
71606;SDS011;60641;53.556;9.914;2023-04-01T02:47:40;8.90;;;2.90;;
71606;SDS011;60641;53.556;9.914;2023-04-01T02:50:07;9.80;;;2.50;;
71606;SDS011;60641;53.556;9.914;2023-04-01T02:52:34;10.00;;;3.00;;
71606;SDS011;60641;53.556;9.914;2023-04-01T02:55:01;10.80;;;3.20;;
71606;SDS011;60641;53.556;9.914;2023-04-01T02:57:27;9.00;;;3.00;;
71606;SDS011;60641;53.556;9.914;2023-04-01T02:59:55;8.60;;;2.60;;
71606;SDS011;60641;53.556;9.914;2023-04-01T03:02:21;9.30;;;3.20;;
71606;SDS011;60641;53.556;9.914;2023-04-01T03:04:47;7.40;;;2.60;;
71606;SDS011;60641;53.556;9.914;2023-04-01T03:07:14;9.90;;;3.40;;
71606;SDS011;60641;53.556;9.914;2023-04-01T03:09:40;10.10;;;3.40;;
71606;SDS011;60641;53.556;9.914;2023-04-01T03:12:07;9.50;;;4.00;;
71606;SDS011;60641;53.556;9.914;2023-04-01T03:14:33;10.60;;;3.50;;
71606;SDS011;60641;53.556;9.914;2023-04-01T03:17:00;9.70;;;3.40;;
71606;SDS011;60641;53.556;9.914;2023-04-01T03:19:26;10.00;;;3.30;;
71606;SDS011;60641;53.556;9.914;2023-04-01T03:21:53;11.90;;;4.30;;
71606;SDS011;60641;53.556;9.914;2023-04-01T03:24:19;10.60;;;3.70;;
71606;SDS011;60641;53.556;9.914;2023-04-01T03:26:46;8.90;;;3.50;;
71606;SDS011;60641;53.556;9.914;2023-04-01T03:29:12;10.10;;;3.80;;
71606;SDS011;60641;53.556;9.914;2023-04-01T03:31:41;8.40;;;3.30;;
71606;SDS011;60641;53.556;9.914;2023-04-01T03:34:08;9.20;;;3.30;;
71606;SDS011;60641;53.556;9.914;2023-04-01T03:36:34;8.90;;;3.60;;
71606;SDS011;60641;53.556;9.914;2023-04-01T03:39:01;9.60;;;3.40;;
71606;SDS011;60641;53.556;9.914;2023-04-01T03:41:29;8.80;;;3.40;;
71606;SDS011;60641;53.556;9.914;2023-04-01T03:43:56;8.00;;;3.40;;
71606;SDS011;60641;53.556;9.914;2023-04-01T03:46:23;9.70;;;3.60;;
71606;SDS011;60641;53.556;9.914;2023-04-01T03:48:50;9.80;;;3.70;;
71606;SDS011;60641;53.556;9.914;2023-04-01T03:51:16;9.70;;;3.80;;
71606;SDS011;60641;53.556;9.914;2023-04-01T03:53:43;8.00;;;3.60;;
71606;SDS011;60641;53.556;9.914;2023-04-01T03:56:09;9.60;;;3.50;;
71606;SDS011;60641;53.556;9.914;2023-04-01T03:58:36;13.60;;;4.00;;
71606;SDS011;60641;53.556;9.914;2023-04-01T04:01:03;9.30;;;3.50;;
71606;SDS011;60641;53.556;9.914;2023-04-01T04:03:40;9.50;;;3.30;;
71606;SDS011;60641;53.556;9.914;2023-04-01T04:06:10;9.50;;;3.10;;
71606;SDS011;60641;53.556;9.914;2023-04-01T04:08:37;7.60;;;2.90;;
71606;SDS011;60641;53.556;9.914;2023-04-01T04:11:04;10.10;;;3.00;;
71606;SDS011;60641;53.556;9.914;2023-04-01T04:13:31;10.10;;;3.40;;
71606;SDS011;60641;53.556;9.914;2023-04-01T04:15:58;7.70;;;3.50;;
71606;SDS011;60641;53.556;9.914;2023-04-01T04:18:24;8.20;;;3.20;;
71606;SDS011;60641;53.556;9.914;2023-04-01T04:20:50;9.00;;;3.40;;
71606;SDS011;60641;53.556;9.914;2023-04-01T04:23:17;11.20;;;3.30;;
71606;SDS011;60641;53.556;9.914;2023-04-01T04:28:26;8.50;;;3.60;;
71606;SDS011;60641;53.556;9.914;2023-04-01T04:30:53;8.30;;;3.10;;
71606;SDS011;60641;53.556;9.914;2023-04-01T04:33:21;10.10;;;3.20;;
71606;SDS011;60641;53.556;9.914;2023-04-01T04:35:48;7.10;;;2.60;;
71606;SDS011;60641;53.556;9.914;2023-04-01T04:38:15;10.40;;;3.20;;
71606;SDS011;60641;53.556;9.914;2023-04-01T04:40:42;9.50;;;3.20;;
71606;SDS011;60641;53.556;9.914;2023-04-01T04:43:12;8.00;;;3.50;;
71606;SDS011;60641;53.556;9.914;2023-04-01T04:45:40;8.30;;;3.10;;
71606;SDS011;60641;53.556;9.914;2023-04-01T04:48:07;9.40;;;3.70;;
71606;SDS011;60641;53.556;9.914;2023-04-01T04:50:35;10.00;;;3.20;;
71606;SDS011;60641;53.556;9.914;2023-04-01T04:53:02;8.50;;;3.50;;
71606;SDS011;60641;53.556;9.914;2023-04-01T04:55:28;10.00;;;3.70;;
71606;SDS011;60641;53.556;9.914;2023-04-01T04:57:55;8.50;;;3.20;;
71606;SDS011;60641;53.556;9.914;2023-04-01T05:00:21;9.20;;;3.30;;
71606;SDS011;60641;53.556;9.914;2023-04-01T05:02:48;8.80;;;3.70;;
71606;SDS011;60641;53.556;9.914;2023-04-01T05:05:15;9.60;;;3.40;;
71606;SDS011;60641;53.556;9.914;2023-04-01T05:07:41;9.10;;;3.60;;
71606;SDS011;60641;53.556;9.914;2023-04-01T05:10:08;10.70;;;4.00;;
71606;SDS011;60641;53.556;9.914;2023-04-01T05:12:34;9.40;;;3.20;;
71606;SDS011;60641;53.556;9.914;2023-04-01T05:15:04;7.50;;;3.10;;
71606;SDS011;60641;53.556;9.914;2023-04-01T05:17:31;9.10;;;3.00;;
71606;SDS011;60641;53.556;9.914;2023-04-01T05:19:57;9.80;;;3.70;;
71606;SDS011;60641;53.556;9.914;2023-04-01T05:22:24;8.20;;;3.70;;
71606;SDS011;60641;53.556;9.914;2023-04-01T05:24:50;6.30;;;2.70;;
71606;SDS011;60641;53.556;9.914;2023-04-01T05:27:17;9.80;;;3.40;;
71606;SDS011;60641;53.556;9.914;2023-04-01T05:29:43;9.80;;;4.00;;
71606;SDS011;60641;53.556;9.914;2023-04-01T05:32:10;9.10;;;3.30;;
71606;SDS011;60641;53.556;9.914;2023-04-01T05:34:36;8.70;;;3.70;;
71606;SDS011;60641;53.556;9.914;2023-04-01T05:37:03;8.00;;;3.30;;
71606;SDS011;60641;53.556;9.914;2023-04-01T05:39:29;9.40;;;3.90;;
71606;SDS011;60641;53.556;9.914;2023-04-01T05:41:56;7.30;;;2.40;;
71606;SDS011;60641;53.556;9.914;2023-04-01T05:44:22;3.70;;;1.00;;
71606;SDS011;60641;53.556;9.914;2023-04-01T05:46:49;1.80;;;0.60;;
71606;SDS011;60641;53.556;9.914;2023-04-01T05:49:15;1.90;;;0.50;;
71606;SDS011;60641;53.556;9.914;2023-04-01T05:51:42;0.80;;;0.40;;
71606;SDS011;60641;53.556;9.914;2023-04-01T05:54:08;0.50;;;0.30;;
71606;SDS011;60641;53.556;9.914;2023-04-01T05:56:35;1.40;;;0.40;;
71606;SDS011;60641;53.556;9.914;2023-04-01T05:59:01;1.00;;;0.40;;
71606;SDS011;60641;53.556;9.914;2023-04-01T06:01:27;1.40;;;0.50;;
71606;SDS011;60641;53.556;9.914;2023-04-01T06:03:54;0.90;;;0.30;;
71606;SDS011;60641;53.556;9.914;2023-04-01T06:06:24;0.50;;;0.30;;
71606;SDS011;60641;53.556;9.914;2023-04-01T06:08:52;1.20;;;0.40;;
71606;SDS011;60641;53.556;9.914;2023-04-01T06:16:55;0.60;;;0.30;;
71606;SDS011;60641;53.556;9.914;2023-04-01T06:25:14;1.00;;;0.40;;
71606;SDS011;60641;53.556;9.914;2023-04-01T06:28:19;1.20;;;0.50;;
71606;SDS011;60641;53.556;9.914;2023-04-01T06:34:05;1.70;;;0.50;;
71606;SDS011;60641;53.556;9.914;2023-04-01T06:36:52;1.60;;;0.50;;
71606;SDS011;60641;53.556;9.914;2023-04-01T06:39:35;1.80;;;0.60;;
71606;SDS011;60641;53.556;9.914;2023-04-01T06:50:37;1.00;;;0.40;;
71606;SDS011;60641;53.556;9.914;2023-04-01T06:55:53;0.90;;;0.40;;
71606;SDS011;60641;53.556;9.914;2023-04-01T06:58:29;1.20;;;0.50;;
71606;SDS011;60641;53.556;9.914;2023-04-01T07:00:58;0.70;;;0.30;;
71606;SDS011;60641;53.556;9.914;2023-04-01T07:03:38;1.50;;;0.40;;
71606;SDS011;60641;53.556;9.914;2023-04-01T07:06:25;0.80;;;0.30;;
71606;SDS011;60641;53.556;9.914;2023-04-01T07:08:57;1.30;;;0.50;;
71606;SDS011;60641;53.556;9.914;2023-04-01T07:11:28;0.70;;;0.30;;
71606;SDS011;60641;53.556;9.914;2023-04-01T07:14:00;0.90;;;0.30;;
71606;SDS011;60641;53.556;9.914;2023-04-01T07:19:01;0.80;;;0.30;;
71606;SDS011;60641;53.556;9.914;2023-04-01T07:21:41;1.30;;;0.30;;
71606;SDS011;60641;53.556;9.914;2023-04-01T07:24:27;1.20;;;0.30;;
71606;SDS011;60641;53.556;9.914;2023-04-01T07:26:59;1.80;;;0.30;;
71606;SDS011;60641;53.556;9.914;2023-04-01T07:29:26;0.80;;;0.40;;
71606;SDS011;60641;53.556;9.914;2023-04-01T07:34:29;0.90;;;0.50;;
71606;SDS011;60641;53.556;9.914;2023-04-01T07:37:14;1.40;;;0.30;;
71606;SDS011;60641;53.556;9.914;2023-04-01T07:39:51;1.00;;;0.40;;
71606;SDS011;60641;53.556;9.914;2023-04-01T07:45:28;0.60;;;0.30;;
71606;SDS011;60641;53.556;9.914;2023-04-01T07:56:28;3.00;;;0.40;;
71606;SDS011;60641;53.556;9.914;2023-04-01T08:07:10;1.20;;;0.40;;
71606;SDS011;60641;53.556;9.914;2023-04-01T08:09:55;0.90;;;0.30;;
71606;SDS011;60641;53.556;9.914;2023-04-01T08:12:36;1.30;;;0.50;;
71606;SDS011;60641;53.556;9.914;2023-04-01T08:20:48;1.50;;;0.50;;
71606;SDS011;60641;53.556;9.914;2023-04-01T08:28:37;1.20;;;0.40;;
71606;SDS011;60641;53.556;9.914;2023-04-01T08:33:38;0.70;;;0.30;;
71606;SDS011;60641;53.556;9.914;2023-04-01T08:38:51;0.60;;;0.30;;
71606;SDS011;60641;53.556;9.914;2023-04-01T08:52:31;1.10;;;0.30;;
71606;SDS011;60641;53.556;9.914;2023-04-01T09:00:46;1.50;;;0.20;;
71606;SDS011;60641;53.556;9.914;2023-04-01T09:21:19;1.50;;;0.50;;
71606;SDS011;60641;53.556;9.914;2023-04-01T09:28:44;0.80;;;0.30;;
71606;SDS011;60641;53.556;9.914;2023-04-01T09:37:26;0.90;;;0.30;;
71606;SDS011;60641;53.556;9.914;2023-04-01T09:42:42;1.10;;;0.30;;
71606;SDS011;60641;53.556;9.914;2023-04-01T09:45:22;1.80;;;0.50;;
71606;SDS011;60641;53.556;9.914;2023-04-01T10:04:54;1.90;;;0.50;;
71606;SDS011;60641;53.556;9.914;2023-04-01T10:24:23;1.00;;;0.30;;
71606;SDS011;60641;53.556;9.914;2023-04-01T10:27:06;1.60;;;0.40;;
71606;SDS011;60641;53.556;9.914;2023-04-01T10:29:57;1.50;;;0.40;;
71606;SDS011;60641;53.556;9.914;2023-04-01T10:32:45;2.40;;;0.40;;
71606;SDS011;60641;53.556;9.914;2023-04-01T10:35:41;0.60;;;0.20;;
71606;SDS011;60641;53.556;9.914;2023-04-01T10:49:42;2.00;;;0.40;;
71606;SDS011;60641;53.556;9.914;2023-04-01T10:52:33;0.90;;;0.40;;
71606;SDS011;60641;53.556;9.914;2023-04-01T11:15:17;0.90;;;0.40;;
71606;SDS011;60641;53.556;9.914;2023-04-01T11:21:22;0.50;;;0.30;;
71606;SDS011;60641;53.556;9.914;2023-04-01T11:29:56;1.30;;;0.50;;
71606;SDS011;60641;53.556;9.914;2023-04-01T11:43:14;1.20;;;0.40;;
71606;SDS011;60641;53.556;9.914;2023-04-01T11:54:38;1.10;;;0.50;;
71606;SDS011;60641;53.556;9.914;2023-04-01T12:02:23;4.20;;;1.20;;
71606;SDS011;60641;53.556;9.914;2023-04-01T12:04:58;4.70;;;0.90;;
71606;SDS011;60641;53.556;9.914;2023-04-01T12:07:43;3.10;;;0.80;;
71606;SDS011;60641;53.556;9.914;2023-04-01T12:10:17;4.90;;;1.70;;
71606;SDS011;60641;53.556;9.914;2023-04-01T12:15:20;3.70;;;1.10;;
71606;SDS011;60641;53.556;9.914;2023-04-01T12:37:35;4.30;;;1.30;;
71606;SDS011;60641;53.556;9.914;2023-04-01T12:51:58;3.90;;;1.60;;
71606;SDS011;60641;53.556;9.914;2023-04-01T12:57:21;5.60;;;1.90;;
71606;SDS011;60641;53.556;9.914;2023-04-01T13:00:10;6.50;;;2.40;;
71606;SDS011;60641;53.556;9.914;2023-04-01T13:12:04;7.40;;;1.70;;
71606;SDS011;60641;53.556;9.914;2023-04-01T13:17:42;7.10;;;2.10;;
71606;SDS011;60641;53.556;9.914;2023-04-01T13:23:31;6.40;;;1.70;;
71606;SDS011;60641;53.556;9.914;2023-04-01T13:26:09;6.60;;;2.00;;
71606;SDS011;60641;53.556;9.914;2023-04-01T13:28:43;3.80;;;1.40;;
71606;SDS011;60641;53.556;9.914;2023-04-01T13:40:01;5.30;;;1.80;;
71606;SDS011;60641;53.556;9.914;2023-04-01T13:42:28;8.30;;;1.80;;
71606;SDS011;60641;53.556;9.914;2023-04-01T13:45:09;5.20;;;1.00;;
71606;SDS011;60641;53.556;9.914;2023-04-01T13:48:04;6.40;;;1.30;;
71606;SDS011;60641;53.556;9.914;2023-04-01T13:58:56;6.40;;;1.50;;
71606;SDS011;60641;53.556;9.914;2023-04-01T14:01:32;3.90;;;1.20;;
71606;SDS011;60641;53.556;9.914;2023-04-01T14:04:28;5.70;;;1.60;;
71606;SDS011;60641;53.556;9.914;2023-04-01T14:23:13;8.50;;;2.70;;
71606;SDS011;60641;53.556;9.914;2023-04-01T14:37:30;5.70;;;1.80;;
71606;SDS011;60641;53.556;9.914;2023-04-01T14:40:28;6.40;;;2.20;;
71606;SDS011;60641;53.556;9.914;2023-04-01T14:43:11;5.10;;;1.50;;
71606;SDS011;60641;53.556;9.914;2023-04-01T14:48:50;5.90;;;2.20;;
71606;SDS011;60641;53.556;9.914;2023-04-01T14:51:31;6.10;;;1.60;;
71606;SDS011;60641;53.556;9.914;2023-04-01T14:54:09;3.60;;;1.40;;
71606;SDS011;60641;53.556;9.914;2023-04-01T14:56:49;7.40;;;1.80;;
71606;SDS011;60641;53.556;9.914;2023-04-01T15:01:50;4.00;;;1.20;;
71606;SDS011;60641;53.556;9.914;2023-04-01T15:04:41;6.60;;;2.20;;
71606;SDS011;60641;53.556;9.914;2023-04-01T15:15:48;5.30;;;1.70;;
71606;SDS011;60641;53.556;9.914;2023-04-01T15:22:22;7.30;;;1.90;;
71606;SDS011;60641;53.556;9.914;2023-04-01T15:24:22;7.20;;;1.70;;
71606;SDS011;60641;53.556;9.914;2023-04-01T15:32:17;9.20;;;2.50;;
71606;SDS011;60641;53.556;9.914;2023-04-01T15:34:58;6.80;;;1.80;;
71606;SDS011;60641;53.556;9.914;2023-04-01T15:40:27;12.60;;;3.20;;
71606;SDS011;60641;53.556;9.914;2023-04-01T15:45:38;10.70;;;3.50;;
71606;SDS011;60641;53.556;9.914;2023-04-01T15:48:16;8.70;;;2.30;;
71606;SDS011;60641;53.556;9.914;2023-04-01T15:51:06;9.80;;;2.80;;
71606;SDS011;60641;53.556;9.914;2023-04-01T15:56:36;9.30;;;3.60;;
71606;SDS011;60641;53.556;9.914;2023-04-01T15:59:15;9.30;;;3.50;;
71606;SDS011;60641;53.556;9.914;2023-04-01T16:09:26;11.10;;;3.00;;
71606;SDS011;60641;53.556;9.914;2023-04-01T16:17:46;8.30;;;3.40;;
71606;SDS011;60641;53.556;9.914;2023-04-01T16:21:21;10.80;;;4.50;;
71606;SDS011;60641;53.556;9.914;2023-04-01T16:23:24;11.20;;;4.10;;
71606;SDS011;60641;53.556;9.914;2023-04-01T16:26:09;13.60;;;4.60;;
71606;SDS011;60641;53.556;9.914;2023-04-01T16:37:49;9.70;;;3.90;;
71606;SDS011;60641;53.556;9.914;2023-04-01T16:45:36;10.40;;;2.40;;
71606;SDS011;60641;53.556;9.914;2023-04-01T16:48:10;10.80;;;3.60;;
71606;SDS011;60641;53.556;9.914;2023-04-01T16:50:42;9.30;;;2.80;;
71606;SDS011;60641;53.556;9.914;2023-04-01T16:58:41;8.00;;;2.70;;
71606;SDS011;60641;53.556;9.914;2023-04-01T17:03:53;12.40;;;3.60;;
71606;SDS011;60641;53.556;9.914;2023-04-01T17:12:12;9.60;;;3.70;;
71606;SDS011;60641;53.556;9.914;2023-04-01T17:22:51;9.30;;;2.70;;
71606;SDS011;60641;53.556;9.914;2023-04-01T17:28:01;11.40;;;4.50;;
71606;SDS011;60641;53.556;9.914;2023-04-01T17:33:43;9.00;;;3.50;;
71606;SDS011;60641;53.556;9.914;2023-04-01T17:42:11;7.60;;;2.40;;
71606;SDS011;60641;53.556;9.914;2023-04-01T17:44:56;7.80;;;3.30;;
71606;SDS011;60641;53.556;9.914;2023-04-01T17:50:24;7.80;;;2.80;;
71606;SDS011;60641;53.556;9.914;2023-04-01T17:53:13;6.50;;;2.20;;
71606;SDS011;60641;53.556;9.914;2023-04-01T17:56:02;7.40;;;2.40;;
71606;SDS011;60641;53.556;9.914;2023-04-01T18:01:30;7.50;;;2.40;;
71606;SDS011;60641;53.556;9.914;2023-04-01T18:04:07;6.90;;;2.20;;
71606;SDS011;60641;53.556;9.914;2023-04-01T18:17:26;6.30;;;1.70;;
71606;SDS011;60641;53.556;9.914;2023-04-01T18:25:40;6.70;;;2.10;;
71606;SDS011;60641;53.556;9.914;2023-04-01T18:31:20;6.80;;;2.10;;
71606;SDS011;60641;53.556;9.914;2023-04-01T18:34:02;8.60;;;1.90;;
71606;SDS011;60641;53.556;9.914;2023-04-01T18:36:47;6.60;;;1.90;;
71606;SDS011;60641;53.556;9.914;2023-04-01T18:48:30;6.60;;;2.30;;
71606;SDS011;60641;53.556;9.914;2023-04-01T18:51:26;6.40;;;2.20;;
71606;SDS011;60641;53.556;9.914;2023-04-01T18:54:01;7.10;;;2.10;;
71606;SDS011;60641;53.556;9.914;2023-04-01T18:56:32;6.70;;;1.90;;
71606;SDS011;60641;53.556;9.914;2023-04-01T18:59:55;11.20;;;2.40;;
71606;SDS011;60641;53.556;9.914;2023-04-01T19:07:44;7.60;;;3.20;;
71606;SDS011;60641;53.556;9.914;2023-04-01T19:10:17;5.80;;;1.70;;
71606;SDS011;60641;53.556;9.914;2023-04-01T19:21:18;8.00;;;2.20;;
71606;SDS011;60641;53.556;9.914;2023-04-01T19:26:46;8.00;;;2.40;;
71606;SDS011;60641;53.556;9.914;2023-04-01T19:38:26;8.90;;;2.60;;
71606;SDS011;60641;53.556;9.914;2023-04-01T19:43:32;10.00;;;2.10;;
71606;SDS011;60641;53.556;9.914;2023-04-01T19:51:50;5.50;;;1.80;;
71606;SDS011;60641;53.556;9.914;2023-04-01T19:54:45;6.90;;;2.00;;
71606;SDS011;60641;53.556;9.914;2023-04-01T19:57:26;5.10;;;1.70;;
71606;SDS011;60641;53.556;9.914;2023-04-01T20:07:51;6.40;;;2.10;;
71606;SDS011;60641;53.556;9.914;2023-04-01T20:10:20;8.70;;;2.10;;
71606;SDS011;60641;53.556;9.914;2023-04-01T20:12:52;4.90;;;1.40;;
71606;SDS011;60641;53.556;9.914;2023-04-01T20:15:29;9.30;;;2.20;;
71606;SDS011;60641;53.556;9.914;2023-04-01T20:18:00;7.40;;;1.90;;
71606;SDS011;60641;53.556;9.914;2023-04-01T20:20:29;8.80;;;2.10;;
71606;SDS011;60641;53.556;9.914;2023-04-01T20:26:07;5.90;;;1.80;;
71606;SDS011;60641;53.556;9.914;2023-04-01T20:31:30;6.60;;;1.80;;
71606;SDS011;60641;53.556;9.914;2023-04-01T20:40:25;7.10;;;2.40;;
71606;SDS011;60641;53.556;9.914;2023-04-01T20:43:23;6.70;;;2.00;;
71606;SDS011;60641;53.556;9.914;2023-04-01T20:51:39;7.50;;;2.00;;
71606;SDS011;60641;53.556;9.914;2023-04-01T21:02:32;9.20;;;2.10;;
71606;SDS011;60641;53.556;9.914;2023-04-01T21:16:50;8.20;;;1.70;;
71606;SDS011;60641;53.556;9.914;2023-04-01T21:19:25;7.80;;;1.40;;
71606;SDS011;60641;53.556;9.914;2023-04-01T21:39:05;7.30;;;1.30;;
71606;SDS011;60641;53.556;9.914;2023-04-01T21:47:29;6.50;;;1.30;;
71606;SDS011;60641;53.556;9.914;2023-04-01T22:04:16;9.80;;;1.90;;
71606;SDS011;60641;53.556;9.914;2023-04-01T22:06:50;5.90;;;1.60;;
71606;SDS011;60641;53.556;9.914;2023-04-01T22:09:25;6.10;;;1.40;;
71606;SDS011;60641;53.556;9.914;2023-04-01T22:12:01;5.70;;;1.60;;
71606;SDS011;60641;53.556;9.914;2023-04-01T22:18:08;6.00;;;1.60;;
71606;SDS011;60641;53.556;9.914;2023-04-01T22:23:39;5.80;;;1.20;;
71606;SDS011;60641;53.556;9.914;2023-04-01T22:32:15;4.00;;;0.90;;
71606;SDS011;60641;53.556;9.914;2023-04-01T22:35:10;5.50;;;1.30;;
71606;SDS011;60641;53.556;9.914;2023-04-01T22:38:20;5.60;;;1.10;;
71606;SDS011;60641;53.556;9.914;2023-04-01T22:41:05;3.80;;;1.10;;
71606;SDS011;60641;53.556;9.914;2023-04-01T22:43:39;6.50;;;1.40;;
71606;SDS011;60641;53.556;9.914;2023-04-01T22:49:22;11.40;;;1.70;;
71606;SDS011;60641;53.556;9.914;2023-04-01T22:51:55;4.10;;;1.00;;
71606;SDS011;60641;53.556;9.914;2023-04-01T22:54:34;6.60;;;1.70;;
71606;SDS011;60641;53.556;9.914;2023-04-01T23:03:08;4.30;;;0.80;;
71606;SDS011;60641;53.556;9.914;2023-04-01T23:08:36;5.90;;;0.90;;
71606;SDS011;60641;53.556;9.914;2023-04-01T23:11:07;2.80;;;0.80;;
71606;SDS011;60641;53.556;9.914;2023-04-01T23:16:48;8.00;;;1.10;;
71606;SDS011;60641;53.556;9.914;2023-04-01T23:19:47;8.10;;;1.50;;
71606;SDS011;60641;53.556;9.914;2023-04-01T23:24:46;6.40;;;1.50;;
71606;SDS011;60641;53.556;9.914;2023-04-01T23:27:39;9.30;;;1.10;;
71606;SDS011;60641;53.556;9.914;2023-04-01T23:36:31;4.40;;;0.70;;
71606;SDS011;60641;53.556;9.914;2023-04-01T23:38:40;4.30;;;0.80;;
71606;SDS011;60641;53.556;9.914;2023-04-01T23:41:08;5.90;;;0.70;;
71606;SDS011;60641;53.556;9.914;2023-04-01T23:43:42;11.00;;;0.90;;
71606;SDS011;60641;53.556;9.914;2023-04-01T23:46:09;4.70;;;1.10;;
71606;SDS011;60641;53.556;9.914;2023-04-01T23:48:38;6.80;;;1.20;;
71606;SDS011;60641;53.556;9.914;2023-04-01T23:51:22;6.50;;;0.80;;
71606;SDS011;60641;53.556;9.914;2023-04-01T23:56:51;7.10;;;1.30;;
71606;SDS011;60641;53.556;9.914;2023-04-01T23:59:23;5.80;;;0.80;;
